createdAt,value
2023-01-09T00:00:01.401Z,5.0
2023-01-09T00:10:01.096Z,4.6
2023-01-09T00:20:02.295Z,4.4
2023-01-09T00:30:01.101Z,4.6
2023-01-09T00:40:00.880Z,4.4
2023-01-09T00:50:02.411Z,4.4
2023-01-09T01:00:02.597Z,4.4
2023-01-09T01:10:02.006Z,4.4
2023-01-09T01:20:00.960Z,4.1
2023-01-09T01:30:01.862Z,4.2
2023-01-09T01:40:02.140Z,4.0
2023-01-09T01:50:01.004Z,4.1
2023-01-09T02:00:01.451Z,4.0
2023-01-09T02:10:01.097Z,3.8
2023-01-09T02:20:00.955Z,4.0
2023-01-09T02:30:01.072Z,3.8
2023-01-09T02:40:00.979Z,3.9
2023-01-09T02:50:01.035Z,4.0
2023-01-09T03:00:01.014Z,4.1
2023-01-09T03:10:01.086Z,4.1
2023-01-09T03:20:02.001Z,4.1
2023-01-09T03:30:01.557Z,4.2
2023-01-09T03:40:01.299Z,4.4
2023-01-09T03:50:01.120Z,4.4
2023-01-09T04:00:00.985Z,4.7
2023-01-09T04:10:01.323Z,4.8
2023-01-09T04:20:01.070Z,4.9
2023-01-09T04:40:01.035Z,5.0
2023-01-09T04:50:01.463Z,5.1
2023-01-09T05:00:01.543Z,5.1
2023-01-09T05:10:03.125Z,5.1
2023-01-09T05:20:03.014Z,5.2
2023-01-09T05:30:01.869Z,5.3
2023-01-09T05:40:02.100Z,5.4
2023-01-09T05:50:01.280Z,5.4
2023-01-09T06:00:00.990Z,5.4
2023-01-09T06:10:01.486Z,5.4
2023-01-09T06:20:01.383Z,5.4
2023-01-09T06:30:02.122Z,5.3
2023-01-09T06:40:00.985Z,5.4
2023-01-09T06:50:01.253Z,5.4
2023-01-09T07:00:01.020Z,5.4
2023-01-09T07:10:01.283Z,5.4
2023-01-09T07:20:01.046Z,5.4
2023-01-09T07:30:01.015Z,5.5
2023-01-09T07:40:02.636Z,5.6
2023-01-09T08:00:01.162Z,5.7
2023-01-09T08:10:01.245Z,5.8
2023-01-09T08:20:02.081Z,5.9
2023-01-09T08:30:01.905Z,5.8
2023-01-09T08:40:01.434Z,6.2
2023-01-09T08:50:01.531Z,6.4
2023-01-09T09:00:01.913Z,6.2
2023-01-09T09:10:02.205Z,6.3
2023-01-09T09:20:01.159Z,6.3
2023-01-09T09:30:02.668Z,6.5
2023-01-09T09:40:09.960Z,6.4
2023-01-09T09:50:01.287Z,6.6
2023-01-09T10:00:01.078Z,6.7
2023-01-09T10:10:01.319Z,6.9
2023-01-09T10:20:01.124Z,7.1
2023-01-09T10:30:01.261Z,7.2
2023-01-09T10:40:01.586Z,7.2
2023-01-09T10:50:01.049Z,7.3
2023-01-09T11:00:01.209Z,7.4
2023-01-09T11:10:01.270Z,7.6
2023-01-09T11:20:01.477Z,7.6
2023-01-09T11:30:01.074Z,7.5
2023-01-09T11:40:01.103Z,7.7
2023-01-09T11:50:01.067Z,7.9
2023-01-09T12:00:01.754Z,7.9
2023-01-09T12:10:01.116Z,8.0
2023-01-09T12:20:01.150Z,8.9
2023-01-09T12:30:01.040Z,9.9
2023-01-09T12:40:01.159Z,9.4
2023-01-09T12:50:01.235Z,8.8
2023-01-09T13:00:01.044Z,10.0
2023-01-09T13:10:01.559Z,9.7
2023-01-09T13:30:01.360Z,12.3
2023-01-09T13:40:01.431Z,12.6
2023-01-09T13:50:01.104Z,10.1
2023-01-09T14:00:02.200Z,8.6
2023-01-09T14:10:01.569Z,8.4
2023-01-09T14:20:01.095Z,8.2
2023-01-09T14:30:01.503Z,8.4
2023-01-09T14:40:01.054Z,8.4
2023-01-09T14:50:01.962Z,9.0
2023-01-09T15:00:01.181Z,8.6
2023-01-09T15:10:01.185Z,8.7
2023-01-09T15:20:03.119Z,8.4
2023-01-09T15:30:01.314Z,8.3
2023-01-09T15:50:01.490Z,8.3
2023-01-09T16:00:01.072Z,8.3
2023-01-09T16:10:01.550Z,8.2
2023-01-09T16:20:01.282Z,8.3
2023-01-09T16:30:00.544Z,8.0
2023-01-09T16:40:01.029Z,7.9
2023-01-09T16:50:01.452Z,7.7
2023-01-09T17:00:01.076Z,7.5
2023-01-09T17:10:01.078Z,7.7
2023-01-09T17:20:01.159Z,7.4
2023-01-09T17:30:05.443Z,7.3
2023-01-09T17:40:02.927Z,7.3
2023-01-09T17:50:01.123Z,7.3
2023-01-09T18:00:02.317Z,7.3
2023-01-09T18:10:01.226Z,7.3
2023-01-09T18:20:01.402Z,7.4
2023-01-09T18:30:04.374Z,7.1
2023-01-09T18:40:01.301Z,7.2
2023-01-09T18:50:01.889Z,7.2
2023-01-09T19:00:01.455Z,7.0
2023-01-09T19:10:01.038Z,7.1
2023-01-09T19:20:01.223Z,7.2
2023-01-09T19:30:01.034Z,7.4
2023-01-09T19:40:01.118Z,7.4
2023-01-09T19:50:04.837Z,7.5
2023-01-09T20:00:01.157Z,7.5
2023-01-09T20:10:01.316Z,7.4
2023-01-09T20:20:01.136Z,7.5
2023-01-09T20:30:01.039Z,7.2
2023-01-09T20:40:01.203Z,7.5
2023-01-09T20:50:01.069Z,7.4
2023-01-09T21:00:01.012Z,7.5
2023-01-09T21:10:01.057Z,7.3
2023-01-09T21:20:01.047Z,7.2
2023-01-09T21:30:01.058Z,7.2
2023-01-09T21:40:01.266Z,7.2
2023-01-09T21:50:01.063Z,7.5
2023-01-09T22:00:01.097Z,7.3
2023-01-09T22:10:00.513Z,7.3
2023-01-09T22:20:01.072Z,7.3
2023-01-09T22:30:02.345Z,7.1
2023-01-09T22:40:01.008Z,7.2
2023-01-09T22:50:02.469Z,6.9
2023-01-09T23:00:01.980Z,6.8
2023-01-09T23:10:01.501Z,6.8
2023-01-09T23:20:02.299Z,6.7
2023-01-09T23:30:01.517Z,6.8
2023-01-09T23:40:01.149Z,7.0
2023-01-09T23:50:02.349Z,7.0
